Tyndall, SD

10:42 AM CDT on September 02, 2014 (GMT -0500)
Tabor - Bares | Change Station
CLOSE
Current Station
Personal Weather Station
Location: Tabor, SD
Elevation: 1355 ft
Nearby Weather Stations

Elev 1355 ft 42.95 °N, 97.66 °W | Updated 8 seconds ago

Clear
Clear
65.8 °F
Feels Like 65.8 °F
N
4.0
Wind Variable Wind from WSW
Gusts 9.0 mph

Today
High -- | Low -- °F
--% Chance of Precip.
Yesterday
High -- | Low -- °F
Precip. -- in
6:57 AM 8:04 PM
First Quarter, 52% visible
Pressure 29.98 in
Visibility 10.0 miles
Clouds Clear
Dew Point 60 °F
Humidity 81%
Rainfall 0.02 in
Snow Depth Not available.
UV 5 out of 12
Pollen 8.90 out of 12
Air Quality Not available.
Flu Activity Not available.
METAR KYKN 021535Z AUTO 00000KT 10SM CLR 19/13 A2998 RMK AO1

More Conditions Fewer Conditions

Pressure 29.98 in
Visibility 10.0 miles
Clouds Clear
Dew Point 60 °F
Humidity 81%
Rainfall 0.02 in
Snow Depth Not available.
UV 5 out of 12
Pollen 8.90 out of 12
Air Quality Not available.
Flu Activity Not available.
METAR KYKN 021535Z AUTO 00000KT 10SM CLR 19/13 A2998 RMK AO1

More Conditions Fewer Conditions

10-Day Weather Forecast

Almanac

Astronomy

Sep. 02, 2014 Rise Set
Actual Time 6:57 AM CDT 8:04 PM CDT
Civil Twilight 6:27 AM CDT 8:33 PM CDT
Nautical Twilight 5:52 AM CDT 9:08 PM CDT
Astronomical Twilight 5:16 AM CDT 9:44 PM CDT
Moon 2:53 PM CDT No Moon Set
Length of Visible Light 14h 05m
Length of Day
13h 07m
Tomorrow will be 2m 49s shorter.
First Quarter, 52% of the Moon is Illuminated
Today
First Quarter
Sep 8
Full
Sep 15
Last Quarter
Sep 24
New
Oct 1
First Quarter

Today's Extremes

State Highs State Lows

Community

WunderPhotos

Upload Photos

1,749,705 photos uploaded!

Nearby

Snow Depth

Station Depth Elevation
North Rapid Creek 0 in 6130 ft
Blind Park 0 in 6890 ft

Earthquake Activity

City Distance Mag. Time & Date
No recent earthquake activity has been reported nearby.
Minimum magnitude displayed is 2.5.

Coastal Water Temperatures

Place Temperature
No Stations Reporting

Nearby Weather Stations